This is the latest recevied weather packets stored in our database for station/object SQ7KHZ-10. If no packets are shown the sender has not sent any weather packets the latest 10 day(s).
| Time | Temp. | Humidity | Pressure | Rain* | Wind** | Luminosity | Snow |
|---|---|---|---|---|---|---|---|
| 1777710512 | 19.44° C | 48% | 1025.1 hPa | 0 mm | - | - | - |
| 1777708114 | 19.44° C | 52% | 1025.2 hPa | 0 mm | - | - | - |
| 1777706909 | 17.78° C | 54% | 1025.3 hPa | 0 mm | - | - | - |
| 1777705703 | 17.22° C | 55% | 1025.2 hPa | 0 mm | - | - | - |
| 1777704494 | 16.67° C | 59% | 1025.3 hPa | 0 mm | - | - | - |
| 1777703287 | 15.56° C | 63% | 1025.3 hPa | 0 mm | - | - | - |
| 1777702081 | 15° C | 61% | 1025.3 hPa | 0 mm | - | - | - |
| 1777700878 | 12.22° C | 71% | 1025.3 hPa | 0 mm | - | - | - |
| 1777699675 | 8.89° C | 83% | 1025.3 hPa | 0 mm | - | - | - |
| 1777698475 | 6.67° C | 90% | 1025.2 hPa | 0 mm | - | - | - |
| 1777697273 | 5° C | 90% | 1025.2 hPa | 0 mm | - | - | - |
| 1777696062 | 2.78° C | 93% | 1025.1 hPa | 0 mm | - | - | - |
| 1777694861 | 2.22° C | 93% | 1025 hPa | 0 mm | - | - | - |
| 1777693650 | 1.67° C | 94% | 1025 hPa | 0 mm | - | - | - |
| 1777692450 | 1.67° C | 94% | 1025 hPa | 0 mm | - | - | - |
| 1777691237 | 1.67° C | 94% | 1025 hPa | 0 mm | - | - | - |
| 1777690038 | 2.22° C | 93% | 1024.9 hPa | 0 mm | - | - | - |
| 1777671943 | 8.33° C | 76% | 1024.8 hPa | 0 mm | - | - | - |
| 1777669530 | 8.89° C | 74% | 1024.8 hPa | 0 mm | - | - | - |
| 1777667118 | 10° C | 70% | 1024.7 hPa | 0 mm | - | - | - |
| 1777652607 | 18.89° C | 43% | 1023.9 hPa | 0 mm | - | - | - |
| 1777651373 | 19.44° C | 43% | 1024 hPa | 0 mm | - | - | - |
| 1777650165 | 20° C | 43% | 1024.1 hPa | 0 mm | - | - | - |
| 1777648956 | 20° C | 41% | 1024.1 hPa | 0 mm | - | - | - |
| 1777647755 | 20° C | 42% | 1024.2 hPa | 0 mm | - | - | - |
* Rain latest hour (hover to see other rain measurements)
** Current wind speed in m/s (hover to see current wind gust speed)